sensor_id;sensor_type;location;lat;lon;timestamp;temperature;humidity
1415;DHT22;702;49.466;11.086;2024-03-02T00:01:49;6.60;99.90
1415;DHT22;702;49.466;11.086;2024-03-02T00:04:20;6.60;99.90
1415;DHT22;702;49.466;11.086;2024-03-02T00:06:51;6.60;99.90
1415;DHT22;702;49.466;11.086;2024-03-02T00:09:24;6.60;99.90
1415;DHT22;702;49.466;11.086;2024-03-02T00:11:53;6.60;99.90
1415;DHT22;702;49.466;11.086;2024-03-02T00:14:22;6.60;99.90
1415;DHT22;702;49.466;11.086;2024-03-02T00:16:51;6.60;99.90
1415;DHT22;702;49.466;11.086;2024-03-02T00:19:19;6.60;99.90
1415;DHT22;702;49.466;11.086;2024-03-02T00:21:49;6.60;99.90
1415;DHT22;702;49.466;11.086;2024-03-02T00:24:21;6.60;99.90
1415;DHT22;702;49.466;11.086;2024-03-02T00:26:48;6.70;99.90
1415;DHT22;702;49.466;11.086;2024-03-02T00:29:20;6.60;99.90
1415;DHT22;702;49.466;11.086;2024-03-02T00:31:49;6.70;99.90
1415;DHT22;702;49.466;11.086;2024-03-02T00:34:19;6.70;99.90
1415;DHT22;702;49.466;11.086;2024-03-02T00:36:51;6.70;99.90
1415;DHT22;702;49.466;11.086;2024-03-02T00:39:18;6.80;99.90
1415;DHT22;702;49.466;11.086;2024-03-02T00:41:46;6.80;99.90
1415;DHT22;702;49.466;11.086;2024-03-02T00:44:19;6.80;99.90
1415;DHT22;702;49.466;11.086;2024-03-02T00:46:47;6.80;99.90
1415;DHT22;702;49.466;11.086;2024-03-02T00:49:22;6.70;99.90
1415;DHT22;702;49.466;11.086;2024-03-02T00:51:53;6.70;99.70
1415;DHT22;702;49.466;11.086;2024-03-02T00:54:21;6.70;99.90
1415;DHT22;702;49.466;11.086;2024-03-02T00:56:50;6.80;99.70
1415;DHT22;702;49.466;11.086;2024-03-02T00:59:20;6.70;99.50
1415;DHT22;702;49.466;11.086;2024-03-02T01:01:49;6.70;99.90
1415;DHT22;702;49.466;11.086;2024-03-02T01:04:20;6.70;99.90
1415;DHT22;702;49.466;11.086;2024-03-02T01:06:47;6.80;99.90
1415;DHT22;702;49.466;11.086;2024-03-02T01:09:15;6.80;99.90
1415;DHT22;702;49.466;11.086;2024-03-02T01:11:44;6.80;99.90
1415;DHT22;702;49.466;11.086;2024-03-02T01:14:14;6.80;99.90
1415;DHT22;702;49.466;11.086;2024-03-02T01:16:45;6.80;99.90
1415;DHT22;702;49.466;11.086;2024-03-02T01:19:14;6.80;99.80
1415;DHT22;702;49.466;11.086;2024-03-02T01:21:42;6.80;99.70
1415;DHT22;702;49.466;11.086;2024-03-02T01:24:10;6.80;99.80
1415;DHT22;702;49.466;11.086;2024-03-02T01:26:38;6.80;99.70
1415;DHT22;702;49.466;11.086;2024-03-02T01:29:07;6.80;99.90
1415;DHT22;702;49.466;11.086;2024-03-02T01:31:35;6.80;99.80
1415;DHT22;702;49.466;11.086;2024-03-02T01:34:08;6.80;99.20
1415;DHT22;702;49.466;11.086;2024-03-02T01:36:36;6.80;98.90
1415;DHT22;702;49.466;11.086;2024-03-02T01:39:04;6.80;99.00
1415;DHT22;702;49.466;11.086;2024-03-02T01:41:37;6.80;98.90
1415;DHT22;702;49.466;11.086;2024-03-02T01:44:06;6.70;98.80
1415;DHT22;702;49.466;11.086;2024-03-02T01:46:35;6.60;98.70
1415;DHT22;702;49.466;11.086;2024-03-02T01:49:03;6.50;99.10
1415;DHT22;702;49.466;11.086;2024-03-02T01:51:32;6.50;99.90
1415;DHT22;702;49.466;11.086;2024-03-02T01:54:01;6.50;99.90
1415;DHT22;702;49.466;11.086;2024-03-02T01:56:29;6.60;99.90
1415;DHT22;702;49.466;11.086;2024-03-02T01:58:59;6.50;99.90
1415;DHT22;702;49.466;11.086;2024-03-02T02:01:27;6.50;99.90
1415;DHT22;702;49.466;11.086;2024-03-02T02:03:54;6.40;99.90
1415;DHT22;702;49.466;11.086;2024-03-02T02:06:22;6.40;99.90
1415;DHT22;702;49.466;11.086;2024-03-02T02:08:52;6.40;99.90
1415;DHT22;702;49.466;11.086;2024-03-02T02:11:21;6.50;99.90
1415;DHT22;702;49.466;11.086;2024-03-02T02:13:50;6.50;99.90
1415;DHT22;702;49.466;11.086;2024-03-02T02:16:18;6.50;99.90
1415;DHT22;702;49.466;11.086;2024-03-02T02:18:55;6.50;99.90
1415;DHT22;702;49.466;11.086;2024-03-02T02:21:24;6.50;99.90
1415;DHT22;702;49.466;11.086;2024-03-02T02:23:52;6.40;99.90
1415;DHT22;702;49.466;11.086;2024-03-02T02:26:20;6.50;99.90
1415;DHT22;702;49.466;11.086;2024-03-02T02:28:48;6.40;99.90
1415;DHT22;702;49.466;11.086;2024-03-02T02:31:16;6.40;99.90
1415;DHT22;702;49.466;11.086;2024-03-02T02:33:43;6.40;99.90
1415;DHT22;702;49.466;11.086;2024-03-02T02:36:13;6.50;99.90
1415;DHT22;702;49.466;11.086;2024-03-02T02:38:44;6.50;99.90
1415;DHT22;702;49.466;11.086;2024-03-02T02:41:14;6.50;99.90
1415;DHT22;702;49.466;11.086;2024-03-02T02:43:42;6.50;99.90
1415;DHT22;702;49.466;11.086;2024-03-02T02:46:10;6.50;99.90
1415;DHT22;702;49.466;11.086;2024-03-02T02:48:38;6.50;99.90
1415;DHT22;702;49.466;11.086;2024-03-02T02:51:06;6.60;99.90
1415;DHT22;702;49.466;11.086;2024-03-02T02:53:35;6.60;99.90
1415;DHT22;702;49.466;11.086;2024-03-02T02:56:07;6.70;99.90
1415;DHT22;702;49.466;11.086;2024-03-02T02:58:35;6.70;99.90
1415;DHT22;702;49.466;11.086;2024-03-02T03:01:03;6.70;99.90
1415;DHT22;702;49.466;11.086;2024-03-02T03:03:31;6.70;99.90
1415;DHT22;702;49.466;11.086;2024-03-02T03:05:58;6.70;99.90
1415;DHT22;702;49.466;11.086;2024-03-02T03:08:29;6.80;99.90
1415;DHT22;702;49.466;11.086;2024-03-02T03:10:57;6.80;99.90
1415;DHT22;702;49.466;11.086;2024-03-02T03:13:26;6.80;99.90
1415;DHT22;702;49.466;11.086;2024-03-02T03:15:54;6.80;99.90
1415;DHT22;702;49.466;11.086;2024-03-02T03:18:23;6.80;99.90
1415;DHT22;702;49.466;11.086;2024-03-02T03:20:52;6.90;99.90
1415;DHT22;702;49.466;11.086;2024-03-02T03:23:22;6.80;99.90
1415;DHT22;702;49.466;11.086;2024-03-02T03:25:49;6.80;99.90
1415;DHT22;702;49.466;11.086;2024-03-02T03:28:19;6.80;99.90
1415;DHT22;702;49.466;11.086;2024-03-02T03:30:49;6.80;99.90
1415;DHT22;702;49.466;11.086;2024-03-02T03:33:18;6.80;99.90
1415;DHT22;702;49.466;11.086;2024-03-02T03:35:46;6.80;99.90
1415;DHT22;702;49.466;11.086;2024-03-02T03:38:14;6.80;99.90
1415;DHT22;702;49.466;11.086;2024-03-02T03:40:43;6.80;99.90
1415;DHT22;702;49.466;11.086;2024-03-02T03:43:13;6.80;99.90
1415;DHT22;702;49.466;11.086;2024-03-02T03:45:43;6.80;99.90
1415;DHT22;702;49.466;11.086;2024-03-02T03:48:14;6.80;99.90
1415;DHT22;702;49.466;11.086;2024-03-02T03:50:43;6.90;99.90
1415;DHT22;702;49.466;11.086;2024-03-02T03:53:16;6.90;99.90
1415;DHT22;702;49.466;11.086;2024-03-02T03:55:43;6.90;99.70
1415;DHT22;702;49.466;11.086;2024-03-02T03:58:14;6.80;99.40
1415;DHT22;702;49.466;11.086;2024-03-02T04:00:44;6.90;99.70
1415;DHT22;702;49.466;11.086;2024-03-02T04:03:13;6.90;99.80
1415;DHT22;702;49.466;11.086;2024-03-02T04:05:46;6.90;99.00
1415;DHT22;702;49.466;11.086;2024-03-02T04:08:14;6.90;98.50
1415;DHT22;702;49.466;11.086;2024-03-02T04:10:44;7.00;98.60
1415;DHT22;702;49.466;11.086;2024-03-02T04:13:12;6.90;97.80
1415;DHT22;702;49.466;11.086;2024-03-02T04:15:39;6.90;98.10
1415;DHT22;702;49.466;11.086;2024-03-02T04:18:07;6.80;97.80
1415;DHT22;702;49.466;11.086;2024-03-02T04:20:36;6.80;98.40
1415;DHT22;702;49.466;11.086;2024-03-02T04:23:07;6.70;98.80
1415;DHT22;702;49.466;11.086;2024-03-02T04:25:36;6.70;98.90
1415;DHT22;702;49.466;11.086;2024-03-02T04:28:04;6.60;98.80
1415;DHT22;702;49.466;11.086;2024-03-02T04:30:32;6.50;99.40
1415;DHT22;702;49.466;11.086;2024-03-02T04:33:01;6.50;99.90
1415;DHT22;702;49.466;11.086;2024-03-02T04:35:31;6.50;99.90
1415;DHT22;702;49.466;11.086;2024-03-02T04:38:03;6.50;99.90
1415;DHT22;702;49.466;11.086;2024-03-02T04:40:30;6.40;99.90
1415;DHT22;702;49.466;11.086;2024-03-02T04:42:58;6.40;99.90
1415;DHT22;702;49.466;11.086;2024-03-02T04:45:26;6.30;99.90
1415;DHT22;702;49.466;11.086;2024-03-02T04:47:53;6.30;99.90
1415;DHT22;702;49.466;11.086;2024-03-02T04:50:20;6.20;99.90
1415;DHT22;702;49.466;11.086;2024-03-02T04:52:47;6.20;99.90
1415;DHT22;702;49.466;11.086;2024-03-02T04:55:16;6.20;99.90
1415;DHT22;702;49.466;11.086;2024-03-02T04:57:55;6.20;99.90
1415;DHT22;702;49.466;11.086;2024-03-02T05:00:22;6.20;99.90
1415;DHT22;702;49.466;11.086;2024-03-02T05:02:52;6.10;99.90
1415;DHT22;702;49.466;11.086;2024-03-02T05:05:19;6.10;99.90
1415;DHT22;702;49.466;11.086;2024-03-02T05:07:46;6.10;99.90
1415;DHT22;702;49.466;11.086;2024-03-02T05:10:14;6.00;99.90
1415;DHT22;702;49.466;11.086;2024-03-02T05:12:43;6.10;99.90
1415;DHT22;702;49.466;11.086;2024-03-02T05:15:23;6.10;99.90
1415;DHT22;702;49.466;11.086;2024-03-02T05:17:52;6.00;99.90
1415;DHT22;702;49.466;11.086;2024-03-02T05:20:19;6.00;99.90
1415;DHT22;702;49.466;11.086;2024-03-02T05:22:48;5.90;99.90
1415;DHT22;702;49.466;11.086;2024-03-02T05:25:17;5.80;99.90
1415;DHT22;702;49.466;11.086;2024-03-02T05:27:44;5.80;99.90
1415;DHT22;702;49.466;11.086;2024-03-02T05:30:13;5.80;99.90
1415;DHT22;702;49.466;11.086;2024-03-02T05:32:40;5.70;99.90
1415;DHT22;702;49.466;11.086;2024-03-02T05:35:08;5.80;99.90
1415;DHT22;702;49.466;11.086;2024-03-02T05:37:37;5.70;99.90
1415;DHT22;702;49.466;11.086;2024-03-02T05:40:06;5.80;99.90
1415;DHT22;702;49.466;11.086;2024-03-02T05:42:35;5.80;99.90
1415;DHT22;702;49.466;11.086;2024-03-02T05:45:03;5.70;99.90
1415;DHT22;702;49.466;11.086;2024-03-02T05:47:31;5.70;99.90
1415;DHT22;702;49.466;11.086;2024-03-02T05:49:59;5.70;99.90
1415;DHT22;702;49.466;11.086;2024-03-02T05:52:26;5.60;99.90
1415;DHT22;702;49.466;11.086;2024-03-02T05:54:55;5.70;99.90
1415;DHT22;702;49.466;11.086;2024-03-02T05:57:22;5.60;99.90
1415;DHT22;702;49.466;11.086;2024-03-02T06:00:09;5.60;99.90
1415;DHT22;702;49.466;11.086;2024-03-02T06:02:43;5.60;99.90
1415;DHT22;702;49.466;11.086;2024-03-02T06:05:11;5.60;99.90
1415;DHT22;702;49.466;11.086;2024-03-02T06:07:38;5.60;99.90
1415;DHT22;702;49.466;11.086;2024-03-02T06:10:08;5.60;99.90
1415;DHT22;702;49.466;11.086;2024-03-02T06:12:37;5.60;99.90
1415;DHT22;702;49.466;11.086;2024-03-02T06:15:04;5.60;99.90
1415;DHT22;702;49.466;11.086;2024-03-02T06:17:38;5.60;99.90
1415;DHT22;702;49.466;11.086;2024-03-02T06:20:07;5.60;99.90
1415;DHT22;702;49.466;11.086;2024-03-02T06:22:38;5.60;99.90
1415;DHT22;702;49.466;11.086;2024-03-02T06:25:06;5.60;99.90
1415;DHT22;702;49.466;11.086;2024-03-02T06:27:36;5.60;99.90
1415;DHT22;702;49.466;11.086;2024-03-02T06:30:06;5.70;99.90
1415;DHT22;702;49.466;11.086;2024-03-02T06:32:36;5.60;99.90
1415;DHT22;702;49.466;11.086;2024-03-02T06:35:04;5.70;99.90
1415;DHT22;702;49.466;11.086;2024-03-02T06:37:36;5.70;99.90
1415;DHT22;702;49.466;11.086;2024-03-02T06:40:04;5.60;99.90
1415;DHT22;702;49.466;11.086;2024-03-02T06:42:33;5.70;99.90
1415;DHT22;702;49.466;11.086;2024-03-02T06:45:01;5.70;99.90
1415;DHT22;702;49.466;11.086;2024-03-02T06:47:32;5.60;99.90
1415;DHT22;702;49.466;11.086;2024-03-02T06:50:01;5.70;99.90
1415;DHT22;702;49.466;11.086;2024-03-02T06:52:29;5.70;99.90
1415;DHT22;702;49.466;11.086;2024-03-02T06:54:56;5.70;99.90
1415;DHT22;702;49.466;11.086;2024-03-02T06:57:23;5.70;99.90
1415;DHT22;702;49.466;11.086;2024-03-02T06:59:51;5.80;99.90
1415;DHT22;702;49.466;11.086;2024-03-02T07:02:20;5.90;99.90
1415;DHT22;702;49.466;11.086;2024-03-02T07:04:49;5.90;99.90
1415;DHT22;702;49.466;11.086;2024-03-02T07:07:17;6.00;99.90
1415;DHT22;702;49.466;11.086;2024-03-02T07:09:44;6.00;99.90
1415;DHT22;702;49.466;11.086;2024-03-02T07:12:12;6.10;99.90
1415;DHT22;702;49.466;11.086;2024-03-02T07:14:40;6.10;99.90
1415;DHT22;702;49.466;11.086;2024-03-02T07:17:25;6.20;99.90
1415;DHT22;702;49.466;11.086;2024-03-02T07:19:57;6.40;99.90
1415;DHT22;702;49.466;11.086;2024-03-02T07:22:24;6.40;99.90
1415;DHT22;702;49.466;11.086;2024-03-02T07:24:52;6.60;99.90
1415;DHT22;702;49.466;11.086;2024-03-02T07:27:20;6.70;99.90
1415;DHT22;702;49.466;11.086;2024-03-02T07:29:47;7.10;99.90
1415;DHT22;702;49.466;11.086;2024-03-02T07:32:14;7.40;99.20
1415;DHT22;702;49.466;11.086;2024-03-02T07:34:41;7.70;96.20
1415;DHT22;702;49.466;11.086;2024-03-02T07:37:10;7.90;94.50
1415;DHT22;702;49.466;11.086;2024-03-02T07:39:37;8.10;92.70
1415;DHT22;702;49.466;11.086;2024-03-02T07:42:05;8.10;92.30
1415;DHT22;702;49.466;11.086;2024-03-02T07:44:32;8.10;92.10
1415;DHT22;702;49.466;11.086;2024-03-02T07:47:00;8.20;92.20
1415;DHT22;702;49.466;11.086;2024-03-02T07:49:27;8.20;91.60
1415;DHT22;702;49.466;11.086;2024-03-02T07:51:54;8.40;91.70
1415;DHT22;702;49.466;11.086;2024-03-02T07:54:23;8.50;91.00
1415;DHT22;702;49.466;11.086;2024-03-02T07:56:50;8.50;90.80
1415;DHT22;702;49.466;11.086;2024-03-02T07:59:17;8.50;90.90
1415;DHT22;702;49.466;11.086;2024-03-02T08:01:45;8.50;90.80
1415;DHT22;702;49.466;11.086;2024-03-02T08:04:12;8.50;91.10
1415;DHT22;702;49.466;11.086;2024-03-02T08:06:39;8.50;90.60
1415;DHT22;702;49.466;11.086;2024-03-02T08:09:07;8.60;90.80
1415;DHT22;702;49.466;11.086;2024-03-02T08:11:37;8.60;90.60
1415;DHT22;702;49.466;11.086;2024-03-02T08:14:04;8.60;90.50
1415;DHT22;702;49.466;11.086;2024-03-02T08:16:31;8.80;90.20
1415;DHT22;702;49.466;11.086;2024-03-02T08:18:59;8.70;89.90
1415;DHT22;702;49.466;11.086;2024-03-02T08:21:27;8.80;89.50
1415;DHT22;702;49.466;11.086;2024-03-02T08:23:56;8.70;90.00
1415;DHT22;702;49.466;11.086;2024-03-02T08:26:24;8.80;89.50
1415;DHT22;702;49.466;11.086;2024-03-02T08:28:56;8.80;89.60
1415;DHT22;702;49.466;11.086;2024-03-02T08:31:23;8.90;88.90
1415;DHT22;702;49.466;11.086;2024-03-02T08:33:50;9.20;89.10
1415;DHT22;702;49.466;11.086;2024-03-02T08:36:17;9.10;88.40
1415;DHT22;702;49.466;11.086;2024-03-02T08:38:45;9.10;88.40
1415;DHT22;702;49.466;11.086;2024-03-02T08:41:12;9.10;88.30
1415;DHT22;702;49.466;11.086;2024-03-02T08:43:42;9.30;87.90
1415;DHT22;702;49.466;11.086;2024-03-02T08:46:11;9.40;87.40
1415;DHT22;702;49.466;11.086;2024-03-02T08:48:38;9.40;87.20
1415;DHT22;702;49.466;11.086;2024-03-02T08:51:06;9.40;86.90
1415;DHT22;702;49.466;11.086;2024-03-02T08:53:36;9.50;86.90
1415;DHT22;702;49.466;11.086;2024-03-02T08:56:04;9.60;86.40
1415;DHT22;702;49.466;11.086;2024-03-02T08:58:32;9.70;86.20
1415;DHT22;702;49.466;11.086;2024-03-02T09:00:59;9.90;85.80
1415;DHT22;702;49.466;11.086;2024-03-02T09:03:28;9.90;85.70
1415;DHT22;702;49.466;11.086;2024-03-02T09:05:55;10.20;84.20
1415;DHT22;702;49.466;11.086;2024-03-02T09:08:23;10.30;83.50
1415;DHT22;702;49.466;11.086;2024-03-02T09:10:51;10.30;83.10
1415;DHT22;702;49.466;11.086;2024-03-02T09:13:18;10.20;83.30
1415;DHT22;702;49.466;11.086;2024-03-02T09:15:45;10.20;83.20
1415;DHT22;702;49.466;11.086;2024-03-02T09:18:13;10.50;82.60
1415;DHT22;702;49.466;11.086;2024-03-02T09:20:42;10.60;82.30
1415;DHT22;702;49.466;11.086;2024-03-02T09:23:10;10.70;82.50
1415;DHT22;702;49.466;11.086;2024-03-02T09:25:37;10.70;81.40
1415;DHT22;702;49.466;11.086;2024-03-02T09:28:04;10.60;81.50
1415;DHT22;702;49.466;11.086;2024-03-02T09:30:33;10.70;81.60
1415;DHT22;702;49.466;11.086;2024-03-02T09:33:00;10.70;81.60
1415;DHT22;702;49.466;11.086;2024-03-02T09:35:27;10.80;81.20
1415;DHT22;702;49.466;11.086;2024-03-02T09:37:56;11.00;80.90
1415;DHT22;702;49.466;11.086;2024-03-02T09:40:23;11.20;80.60
1415;DHT22;702;49.466;11.086;2024-03-02T09:42:51;11.10;80.40
1415;DHT22;702;49.466;11.086;2024-03-02T09:45:22;11.00;80.40
1415;DHT22;702;49.466;11.086;2024-03-02T09:47:50;11.20;80.60
1415;DHT22;702;49.466;11.086;2024-03-02T09:50:18;11.40;80.00
1415;DHT22;702;49.466;11.086;2024-03-02T09:52:48;11.70;80.00
1415;DHT22;702;49.466;11.086;2024-03-02T09:55:20;11.80;79.40
1415;DHT22;702;49.466;11.086;2024-03-02T09:57:47;11.90;79.20
1415;DHT22;702;49.466;11.086;2024-03-02T10:00:16;12.20;78.70
1415;DHT22;702;49.466;11.086;2024-03-02T10:02:42;12.20;78.40
1415;DHT22;702;49.466;11.086;2024-03-02T10:05:10;12.30;78.20
1415;DHT22;702;49.466;11.086;2024-03-02T10:07:38;12.50;78.00
1415;DHT22;702;49.466;11.086;2024-03-02T10:10:15;12.80;77.50
1415;DHT22;702;49.466;11.086;2024-03-02T10:12:45;12.90;76.60
1415;DHT22;702;49.466;11.086;2024-03-02T10:15:12;12.90;76.70
1415;DHT22;702;49.466;11.086;2024-03-02T10:17:40;12.90;76.50
1415;DHT22;702;49.466;11.086;2024-03-02T10:20:23;12.90;76.10
1415;DHT22;702;49.466;11.086;2024-03-02T10:22:51;12.90;76.10
1415;DHT22;702;49.466;11.086;2024-03-02T10:25:31;12.90;75.90
1415;DHT22;702;49.466;11.086;2024-03-02T10:28:02;13.00;75.60
1415;DHT22;702;49.466;11.086;2024-03-02T10:30:31;12.80;75.90
1415;DHT22;702;49.466;11.086;2024-03-02T10:33:00;12.80;75.60
1415;DHT22;702;49.466;11.086;2024-03-02T10:35:28;12.80;75.60
1415;DHT22;702;49.466;11.086;2024-03-02T10:37:58;13.10;75.50
1415;DHT22;702;49.466;11.086;2024-03-02T10:40:27;12.90;75.90
1415;DHT22;702;49.466;11.086;2024-03-02T10:42:54;12.90;75.50
1415;DHT22;702;49.466;11.086;2024-03-02T10:45:23;12.80;75.50
1415;DHT22;702;49.466;11.086;2024-03-02T10:47:51;13.00;75.30
1415;DHT22;702;49.466;11.086;2024-03-02T10:50:18;13.10;74.90
1415;DHT22;702;49.466;11.086;2024-03-02T10:52:46;13.10;74.80
1415;DHT22;702;49.466;11.086;2024-03-02T10:55:13;13.00;74.60
1415;DHT22;702;49.466;11.086;2024-03-02T10:57:42;13.20;74.30
1415;DHT22;702;49.466;11.086;2024-03-02T11:00:15;13.20;74.00
1415;DHT22;702;49.466;11.086;2024-03-02T11:02:51;12.90;74.00
1415;DHT22;702;49.466;11.086;2024-03-02T11:05:27;12.80;74.70
1415;DHT22;702;49.466;11.086;2024-03-02T11:08:00;12.90;74.20
1415;DHT22;702;49.466;11.086;2024-03-02T11:10:34;12.70;73.80
1415;DHT22;702;49.466;11.086;2024-03-02T11:13:05;12.70;74.10
1415;DHT22;702;49.466;11.086;2024-03-02T11:15:36;13.10;73.50
1415;DHT22;702;49.466;11.086;2024-03-02T11:18:06;13.20;73.40
1415;DHT22;702;49.466;11.086;2024-03-02T11:20:37;13.10;73.40
1415;DHT22;702;49.466;11.086;2024-03-02T11:23:05;13.10;73.00
1415;DHT22;702;49.466;11.086;2024-03-02T11:25:33;12.90;73.00
1415;DHT22;702;49.466;11.086;2024-03-02T11:28:03;12.80;73.20
1415;DHT22;702;49.466;11.086;2024-03-02T11:30:50;12.80;73.10
1415;DHT22;702;49.466;11.086;2024-03-02T11:33:26;12.90;73.30
1415;DHT22;702;49.466;11.086;2024-03-02T11:35:57;13.00;73.00
1415;DHT22;702;49.466;11.086;2024-03-02T11:38:29;13.00;73.00
1415;DHT22;702;49.466;11.086;2024-03-02T11:41:00;13.10;72.10
1415;DHT22;702;49.466;11.086;2024-03-02T11:43:28;13.00;71.80
1415;DHT22;702;49.466;11.086;2024-03-02T11:45:59;13.00;71.90
1415;DHT22;702;49.466;11.086;2024-03-02T11:48:31;13.00;72.10
1415;DHT22;702;49.466;11.086;2024-03-02T11:51:00;12.80;71.80
1415;DHT22;702;49.466;11.086;2024-03-02T11:53:28;12.70;72.10
1415;DHT22;702;49.466;11.086;2024-03-02T11:55:56;13.00;72.20
1415;DHT22;702;49.466;11.086;2024-03-02T11:58:24;13.10;71.70
1415;DHT22;702;49.466;11.086;2024-03-02T12:00:54;13.20;71.50
1415;DHT22;702;49.466;11.086;2024-03-02T12:03:23;13.50;71.30
1415;DHT22;702;49.466;11.086;2024-03-02T12:05:55;13.60;70.80
1415;DHT22;702;49.466;11.086;2024-03-02T12:08:23;13.50;70.70
1415;DHT22;702;49.466;11.086;2024-03-02T12:10:57;13.20;70.60
1415;DHT22;702;49.466;11.086;2024-03-02T12:13:26;13.20;70.90
1415;DHT22;702;49.466;11.086;2024-03-02T12:15:54;13.40;70.70
1415;DHT22;702;49.466;11.086;2024-03-02T12:18:23;13.40;70.60
1415;DHT22;702;49.466;11.086;2024-03-02T12:20:52;13.20;70.50
1415;DHT22;702;49.466;11.086;2024-03-02T12:23:24;13.10;70.80
1415;DHT22;702;49.466;11.086;2024-03-02T12:25:51;13.20;70.60
1415;DHT22;702;49.466;11.086;2024-03-02T12:28:19;13.20;70.20
1415;DHT22;702;49.466;11.086;2024-03-02T12:30:46;13.00;70.30
1415;DHT22;702;49.466;11.086;2024-03-02T12:33:14;12.70;70.70
1415;DHT22;702;49.466;11.086;2024-03-02T12:35:42;12.80;70.70
1415;DHT22;702;49.466;11.086;2024-03-02T12:38:09;12.90;70.80
1415;DHT22;702;49.466;11.086;2024-03-02T12:40:39;12.70;71.10
1415;DHT22;702;49.466;11.086;2024-03-02T12:43:06;12.70;71.30
1415;DHT22;702;49.466;11.086;2024-03-02T12:45:34;12.80;71.30
1415;DHT22;702;49.466;11.086;2024-03-02T12:48:01;12.50;71.40
1415;DHT22;702;49.466;11.086;2024-03-02T12:50:29;12.60;71.50
1415;DHT22;702;49.466;11.086;2024-03-02T12:52:56;12.50;71.50
1415;DHT22;702;49.466;11.086;2024-03-02T12:55:23;12.50;71.90
1415;DHT22;702;49.466;11.086;2024-03-02T12:57:53;12.70;71.70
1415;DHT22;702;49.466;11.086;2024-03-02T13:00:22;12.60;71.40
1415;DHT22;702;49.466;11.086;2024-03-02T13:02:49;12.70;71.20
1415;DHT22;702;49.466;11.086;2024-03-02T13:05:17;12.80;71.00
1415;DHT22;702;49.466;11.086;2024-03-02T13:07:47;12.70;71.00
1415;DHT22;702;49.466;11.086;2024-03-02T13:10:14;12.70;70.90
1415;DHT22;702;49.466;11.086;2024-03-02T13:12:42;12.90;70.80
1415;DHT22;702;49.466;11.086;2024-03-02T13:15:10;13.00;70.60
1415;DHT22;702;49.466;11.086;2024-03-02T13:17:39;13.00;70.40
1415;DHT22;702;49.466;11.086;2024-03-02T13:20:07;12.80;70.30
1415;DHT22;702;49.466;11.086;2024-03-02T13:22:36;12.80;70.70
1415;DHT22;702;49.466;11.086;2024-03-02T13:25:04;13.00;70.50
1415;DHT22;702;49.466;11.086;2024-03-02T13:27:31;13.00;70.10
1415;DHT22;702;49.466;11.086;2024-03-02T13:29:59;12.90;70.00
1415;DHT22;702;49.466;11.086;2024-03-02T13:32:27;13.10;69.80
1415;DHT22;702;49.466;11.086;2024-03-02T13:34:55;13.00;70.00
1415;DHT22;702;49.466;11.086;2024-03-02T13:37:24;13.20;69.70
1415;DHT22;702;49.466;11.086;2024-03-02T13:39:51;13.40;69.80
1415;DHT22;702;49.466;11.086;2024-03-02T13:42:20;13.60;69.40
1415;DHT22;702;49.466;11.086;2024-03-02T13:44:48;13.80;69.20
1415;DHT22;702;49.466;11.086;2024-03-02T13:47:18;13.90;68.90
1415;DHT22;702;49.466;11.086;2024-03-02T13:49:49;13.80;68.70
1415;DHT22;702;49.466;11.086;2024-03-02T13:52:17;14.10;68.70
1415;DHT22;702;49.466;11.086;2024-03-02T13:54:46;14.10;68.10
1415;DHT22;702;49.466;11.086;2024-03-02T13:57:14;13.90;68.00
1415;DHT22;702;49.466;11.086;2024-03-02T13:59:43;14.10;68.00
1415;DHT22;702;49.466;11.086;2024-03-02T14:02:12;13.90;67.50
1415;DHT22;702;49.466;11.086;2024-03-02T14:04:41;13.80;68.10
1415;DHT22;702;49.466;11.086;2024-03-02T14:07:16;13.90;66.90
1415;DHT22;702;49.466;11.086;2024-03-02T14:09:46;14.00;66.20
1415;DHT22;702;49.466;11.086;2024-03-02T14:12:15;14.00;66.50
1415;DHT22;702;49.466;11.086;2024-03-02T14:14:43;14.20;65.90
1415;DHT22;702;49.466;11.086;2024-03-02T14:17:10;14.10;66.00
1415;DHT22;702;49.466;11.086;2024-03-02T14:19:41;14.00;66.10
1415;DHT22;702;49.466;11.086;2024-03-02T14:22:13;13.50;66.40
1415;DHT22;702;49.466;11.086;2024-03-02T14:24:43;13.40;67.00
1415;DHT22;702;49.466;11.086;2024-03-02T14:27:12;13.40;67.30
1415;DHT22;702;49.466;11.086;2024-03-02T14:29:43;13.70;67.10
1415;DHT22;702;49.466;11.086;2024-03-02T14:32:10;13.70;67.00
1415;DHT22;702;49.466;11.086;2024-03-02T14:34:38;14.20;66.80
1415;DHT22;702;49.466;11.086;2024-03-02T14:37:06;14.00;66.80
1415;DHT22;702;49.466;11.086;2024-03-02T14:39:34;13.70;67.10
1415;DHT22;702;49.466;11.086;2024-03-02T14:42:02;13.40;67.80
1415;DHT22;702;49.466;11.086;2024-03-02T14:44:29;13.30;68.10
1415;DHT22;702;49.466;11.086;2024-03-02T14:46:56;13.50;68.20
1415;DHT22;702;49.466;11.086;2024-03-02T14:49:25;13.60;68.30
1415;DHT22;702;49.466;11.086;2024-03-02T14:51:52;13.70;68.40
1415;DHT22;702;49.466;11.086;2024-03-02T14:54:19;13.70;68.30
1415;DHT22;702;49.466;11.086;2024-03-02T14:56:55;13.60;68.40
1415;DHT22;702;49.466;11.086;2024-03-02T14:59:23;13.70;68.30
1415;DHT22;702;49.466;11.086;2024-03-02T15:01:50;13.60;68.60
1415;DHT22;702;49.466;11.086;2024-03-02T15:04:17;13.60;68.50
1415;DHT22;702;49.466;11.086;2024-03-02T15:06:45;13.60;68.60
1415;DHT22;702;49.466;11.086;2024-03-02T15:09:13;13.50;68.90
1415;DHT22;702;49.466;11.086;2024-03-02T15:11:44;13.30;69.20
1415;DHT22;702;49.466;11.086;2024-03-02T15:14:13;13.40;69.20
1415;DHT22;702;49.466;11.086;2024-03-02T15:16:42;13.50;68.60
1415;DHT22;702;49.466;11.086;2024-03-02T15:19:10;13.30;68.50
1415;DHT22;702;49.466;11.086;2024-03-02T15:21:41;13.20;68.70
1415;DHT22;702;49.466;11.086;2024-03-02T15:24:09;12.90;68.20
1415;DHT22;702;49.466;11.086;2024-03-02T15:26:37;12.50;69.00
1415;DHT22;702;49.466;11.086;2024-03-02T15:29:13;12.60;69.40
1415;DHT22;702;49.466;11.086;2024-03-02T15:31:41;12.70;69.50
1415;DHT22;702;49.466;11.086;2024-03-02T15:34:08;12.60;69.50
1415;DHT22;702;49.466;11.086;2024-03-02T15:36:36;12.50;70.00
1415;DHT22;702;49.466;11.086;2024-03-02T15:39:05;12.50;70.00
1415;DHT22;702;49.466;11.086;2024-03-02T15:41:34;12.30;70.60
1415;DHT22;702;49.466;11.086;2024-03-02T15:44:01;12.20;70.70
1415;DHT22;702;49.466;11.086;2024-03-02T15:46:29;12.20;71.20
1415;DHT22;702;49.466;11.086;2024-03-02T15:48:57;12.00;71.70
1415;DHT22;702;49.466;11.086;2024-03-02T15:51:26;11.90;72.10
1415;DHT22;702;49.466;11.086;2024-03-02T15:53:54;11.80;72.40
1415;DHT22;702;49.466;11.086;2024-03-02T15:56:21;11.70;72.30
1415;DHT22;702;49.466;11.086;2024-03-02T15:58:50;11.60;72.40
1415;DHT22;702;49.466;11.086;2024-03-02T16:01:21;11.80;72.30
1415;DHT22;702;49.466;11.086;2024-03-02T16:03:52;11.50;72.00
1415;DHT22;702;49.466;11.086;2024-03-02T16:06:19;11.30;72.50
1415;DHT22;702;49.466;11.086;2024-03-02T16:08:47;11.20;72.80
1415;DHT22;702;49.466;11.086;2024-03-02T16:11:15;11.00;72.90
1415;DHT22;702;49.466;11.086;2024-03-02T16:13:43;10.80;73.50
1415;DHT22;702;49.466;11.086;2024-03-02T16:16:12;10.90;74.00
1415;DHT22;702;49.466;11.086;2024-03-02T16:18:42;10.80;74.20
1415;DHT22;702;49.466;11.086;2024-03-02T16:21:21;10.60;74.70